Time;durP1;ratioP1;P1;durP2;ratioP2;P2;SDS_P1;SDS_P2;PMS_P1;PMS_P2;Temp;Humidity;BMP_temperature;BMP_pressure;BME280_temperature;BME280_humidity;BME280_pressure;Samples;Min_cycle;Max_cycle;Signal;HPM_P1;HPM_P2
2021/12/14 00:00:37;;;;;;;1.52;1.40;;;22.20;33.50;;;;;;5105659;28;20286;-69
2021/12/14 00:03:06;;;;;;;1.55;1.45;;;22.20;33.40;;;;;;5110388;28;20035;-69
2021/12/14 00:05:35;;;;;;;1.80;1.52;;;22.20;33.50;;;;;;5079151;28;20044;-69
2021/12/14 00:08:05;;;;;;;1.30;1.08;;;22.20;33.50;;;;;;5074316;28;20071;-69
2021/12/14 00:10:51;;;;;;;1.67;1.20;;;22.20;33.40;;;;;;5091481;28;20415;-69
2021/12/14 00:13:44;;;;;;;1.45;1.35;;;22.20;33.40;;;;;;5111823;28;20293;-69
2021/12/14 00:16:11;;;;;;;1.83;1.48;;;22.20;33.40;;;;;;5098773;28;20083;-69
2021/12/14 00:18:40;;;;;;;1.65;1.55;;;22.10;33.40;;;;;;5112323;28;20051;-68
2021/12/14 00:21:18;;;;;;;1.38;1.27;;;22.10;33.40;;;;;;5109347;28;20071;-69
2021/12/14 00:26:54;;;;;;;1.52;1.42;;;22.20;33.40;;;;;;5103277;28;20052;-68
2021/12/14 00:29:28;;;;;;;1.67;1.33;;;22.10;33.40;;;;;;5111114;28;20082;-68
2021/12/14 00:32:00;;;;;;;1.58;1.45;;;22.10;33.40;;;;;;5110481;28;20480;-68
2021/12/14 00:34:37;;;;;;;2.03;1.45;;;22.10;33.40;;;;;;5102803;28;20308;-68
2021/12/14 00:37:08;;;;;;;1.40;1.30;;;22.10;33.40;;;;;;5104368;28;20090;-68
2021/12/14 00:39:36;;;;;;;1.58;1.40;;;22.10;33.40;;;;;;5091607;28;20083;-68
2021/12/14 00:42:04;;;;;;;2.00;1.67;;;22.10;33.40;;;;;;5110160;28;20048;-68
2021/12/14 00:44:33;;;;;;;2.28;2.00;;;22.10;33.40;;;;;;5106617;28;20238;-68
2021/12/14 00:47:01;;;;;;;1.70;1.60;;;22.10;33.40;;;;;;5102708;28;20484;-68
2021/12/14 00:49:28;;;;;;;1.98;1.30;;;22.10;33.40;;;;;;5109919;28;20498;-68
2021/12/14 00:51:56;;;;;;;1.60;1.50;;;22.10;33.30;;;;;;5110015;28;20635;-68
2021/12/14 00:54:25;;;;;;;1.08;1.05;;;22.10;33.40;;;;;;5104919;27;20605;-68
2021/12/14 00:56:53;;;;;;;2.15;1.45;;;22.00;33.30;;;;;;5105199;28;20075;-68
2021/12/14 00:59:21;;;;;;;1.42;1.27;;;22.10;33.40;;;;;;5109694;28;20465;-69
2021/12/14 01:01:57;;;;;;;1.45;1.33;;;22.10;33.30;;;;;;5109857;28;20081;-69
2021/12/14 01:04:33;;;;;;;1.90;1.50;;;22.10;33.30;;;;;;5082728;28;20168;-68
2021/12/14 01:07:02;;;;;;;2.00;1.58;;;22.10;33.30;;;;;;5066595;28;20040;-67
2021/12/14 01:09:35;;;;;;;1.65;1.55;;;22.10;33.30;;;;;;5071104;28;20594;-68
2021/12/14 01:12:10;;;;;;;2.38;2.13;;;22.10;33.30;;;;;;5089616;28;20070;-69
2021/12/14 01:14:48;;;;;;;2.42;1.55;;;22.10;33.30;;;;;;5084201;28;20194;-67
2021/12/14 01:17:39;;;;;;;1.67;1.58;;;22.10;33.30;;;;;;5087107;28;20142;-67
2021/12/14 01:20:11;;;;;;;1.67;1.38;;;22.10;33.30;;;;;;5088358;28;20051;-69
2021/12/14 01:22:43;;;;;;;2.20;1.90;;;22.00;33.20;;;;;;5090407;28;20056;-68
2021/12/14 01:25:25;;;;;;;1.60;1.50;;;22.10;33.20;;;;;;5061105;28;20074;-69
2021/12/14 01:28:16;;;;;;;1.60;1.50;;;22.00;33.20;;;;;;5089690;28;20542;-69
2021/12/14 01:31:11;;;;;;;2.03;1.50;;;22.00;33.10;;;;;;5087855;28;20071;-68
2021/12/14 01:33:41;;;;;;;1.85;1.73;;;22.00;33.10;;;;;;5090160;28;20055;-69
2021/12/14 01:36:23;;;;;;;1.58;1.48;;;22.00;33.10;;;;;;5075012;28;20079;-69
2021/12/14 01:41:41;;;;;;;2.38;1.83;;;22.00;33.20;;;;;;5087708;28;20231;-68
2021/12/14 01:44:10;;;;;;;1.77;1.60;;;22.00;33.20;;;;;;5065693;28;20516;-68
2021/12/14 01:46:46;;;;;;;1.73;1.63;;;22.00;33.10;;;;;;5081452;28;20270;-68
2021/12/14 01:49:16;;;;;;;2.60;1.63;;;22.00;33.10;;;;;;5070701;28;20076;-67
2021/12/14 01:51:46;;;;;;;1.83;1.60;;;22.00;33.10;;;;;;5088011;28;20127;-67
2021/12/14 01:54:16;;;;;;;1.40;1.30;;;22.00;33.10;;;;;;5083715;28;20062;-70
2021/12/14 01:56:44;;;;;;;2.10;1.70;;;22.00;33.20;;;;;;5082190;28;20139;-69
2021/12/14 01:59:22;;;;;;;1.65;1.52;;;21.90;33.10;;;;;;5087811;28;20734;-69
2021/12/14 02:02:07;;;;;;;1.63;1.42;;;21.90;33.10;;;;;;5088019;28;20137;-69
2021/12/14 02:04:40;;;;;;;1.80;1.70;;;21.90;33.10;;;;;;5082725;28;20067;-69
2021/12/14 02:07:08;;;;;;;2.08;1.88;;;21.90;33.10;;;;;;5068193;28;20580;-69
2021/12/14 02:09:36;;;;;;;2.35;1.67;;;21.90;33.10;;;;;;5087533;28;20048;-69
2021/12/14 02:12:13;;;;;;;1.63;1.52;;;21.90;33.10;;;;;;5088274;28;20052;-69
2021/12/14 02:14:40;;;;;;;1.85;1.75;;;21.90;33.10;;;;;;5065614;28;20137;-69
2021/12/14 02:17:11;;;;;;;1.98;1.63;;;21.90;33.10;;;;;;5085727;28;20596;-69
2021/12/14 02:19:39;;;;;;;1.67;1.52;;;21.90;33.10;;;;;;5069467;28;20393;-69
2021/12/14 02:22:09;;;;;;;2.13;1.90;;;21.90;33.10;;;;;;5087941;28;20044;-69
2021/12/14 02:24:38;;;;;;;2.08;1.88;;;21.90;33.10;;;;;;5081180;28;20139;-69
2021/12/14 02:27:06;;;;;;;2.08;1.88;;;21.90;33.10;;;;;;5082821;28;20134;-69
2021/12/14 02:29:37;;;;;;;1.70;1.60;;;21.90;33.10;;;;;;5087329;28;20343;-69
2021/12/14 02:32:10;;;;;;;3.00;2.00;;;21.90;33.60;;;;;;5088221;28;20048;-70
2021/12/14 02:34:44;;;;;;;1.63;1.52;;;21.90;33.10;;;;;;5079940;28;20051;-69
2021/12/14 02:37:12;;;;;;;2.13;1.73;;;21.90;33.10;;;;;;5085586;28;20098;-69
2021/12/14 02:39:48;;;;;;;1.90;1.65;;;21.90;33.10;;;;;;5087301;28;20080;-68
2021/12/14 02:42:23;;;;;;;1.88;1.58;;;21.90;33.10;;;;;;5087887;28;20143;-69
2021/12/14 02:44:54;;;;;;;3.60;2.03;;;21.90;33.10;;;;;;5080532;28;20485;-69
2021/12/14 02:47:22;;;;;;;2.53;2.10;;;21.90;33.10;;;;;;5084126;28;20262;-68
2021/12/14 02:49:49;;;;;;;2.35;2.10;;;21.90;33.10;;;;;;5086610;28;20163;-68
2021/12/14 02:52:35;;;;;;;1.80;1.70;;;21.90;33.10;;;;;;5087850;28;20548;-68
2021/12/14 02:55:21;;;;;;;1.77;1.65;;;21.90;33.10;;;;;;5078947;28;20500;-68
2021/12/14 02:57:53;;;;;;;2.45;2.13;;;21.90;33.00;;;;;;5070150;28;20075;-69
2021/12/14 03:00:29;;;;;;;3.40;1.88;;;21.90;33.00;;;;;;5085489;28;20102;-67
2021/12/14 03:02:58;;;;;;;2.40;2.00;;;21.90;33.00;;;;;;5088841;28;20541;-69
2021/12/14 03:05:29;;;;;;;2.10;1.83;;;21.90;33.00;;;;;;5075350;28;20043;-68
2021/12/14 03:08:09;;;;;;;2.42;1.77;;;21.90;33.00;;;;;;5088361;28;20135;-67
2021/12/14 03:10:53;;;;;;;2.70;2.30;;;21.90;33.00;;;;;;5085349;28;20094;-68
2021/12/14 03:13:23;;;;;;;2.13;1.70;;;21.90;33.00;;;;;;5088206;28;20079;-68
2021/12/14 03:15:55;;;;;;;3.03;2.28;;;21.90;32.90;;;;;;5075712;28;20080;-69
2021/12/14 03:18:27;;;;;;;2.45;2.15;;;21.90;32.90;;;;;;5088772;28;20052;-67
2021/12/14 03:21:12;;;;;;;2.90;2.47;;;21.90;32.90;;;;;;5085389;28;20083;-68
2021/12/14 03:23:46;;;;;;;2.83;2.47;;;21.80;32.90;;;;;;5088602;28;20459;-67
2021/12/14 03:26:17;;;;;;;2.65;1.98;;;21.80;32.90;;;;;;5074627;28;20079;-68
2021/12/14 03:28:49;;;;;;;2.33;2.13;;;21.80;32.90;;;;;;5088032;28;20439;-69
2021/12/14 03:31:30;;;;;;;2.35;2.15;;;21.80;32.90;;;;;;5084658;28;20050;-69
2021/12/14 03:34:20;;;;;;;2.53;1.92;;;21.80;32.90;;;;;;5086999;28;20531;-69
2021/12/14 03:36:54;;;;;;;2.93;2.03;;;21.80;32.90;;;;;;5079278;28;20228;-69
2021/12/14 03:39:25;;;;;;;2.80;2.33;;;21.80;32.80;;;;;;5090910;28;20087;-69
2021/12/14 03:41:58;;;;;;;2.75;2.20;;;21.80;32.80;;;;;;5090258;28;20135;-69
2021/12/14 03:44:36;;;;;;;2.65;2.10;;;21.80;32.80;;;;;;5087354;28;20151;-69
2021/12/14 03:47:10;;;;;;;3.20;2.30;;;21.80;33.10;;;;;;5084965;28;20075;-69
2021/12/14 03:49:48;;;;;;;2.92;2.20;;;21.80;32.90;;;;;;5090624;28;20448;-69
2021/12/14 03:52:22;;;;;;;2.10;1.90;;;21.80;32.90;;;;;;5090763;28;20565;-69
2021/12/14 03:54:49;;;;;;;2.47;2.10;;;21.80;32.90;;;;;;5084704;28;20135;-69
2021/12/14 03:57:17;;;;;;;2.53;2.05;;;21.80;32.90;;;;;;5087675;28;20587;-69
2021/12/14 03:59:45;;;;;;;3.72;2.53;;;21.80;32.80;;;;;;5093212;28;20079;-69
2021/12/14 04:02:16;;;;;;;2.47;1.90;;;21.80;32.90;;;;;;5089908;28;20044;-69
2021/12/14 04:04:51;;;;;;;2.38;2.13;;;21.80;32.90;;;;;;5086007;28;20040;-68
2021/12/14 04:07:20;;;;;;;1.98;1.80;;;21.70;32.80;;;;;;5088171;28;20048;-69
2021/12/14 04:09:48;;;;;;;2.78;2.03;;;21.80;32.90;;;;;;5090374;28;20534;-69
2021/12/14 04:12:19;;;;;;;2.25;1.77;;;21.80;32.90;;;;;;5090416;28;20135;-71
2021/12/14 04:14:52;;;;;;;2.85;2.28;;;21.80;32.90;;;;;;5082753;28;20102;-68
2021/12/14 04:17:23;;;;;;;2.40;2.20;;;21.80;32.90;;;;;;5086563;28;20044;-69
2021/12/14 04:19:51;;;;;;;2.75;2.05;;;21.70;32.80;;;;;;5089581;28;20574;-69
2021/12/14 04:22:23;;;;;;;3.13;2.10;;;21.70;32.80;;;;;;5090232;28;20079;-69
2021/12/14 04:24:55;;;;;;;2.58;2.15;;;21.70;32.80;;;;;;5082904;28;20429;-69
2021/12/14 04:27:26;;;;;;;1.90;1.75;;;21.70;32.80;;;;;;5069238;28;20052;-69
2021/12/14 04:29:56;;;;;;;2.60;2.22;;;21.70;32.80;;;;;;5089501;28;20048;-69
2021/12/14 04:32:24;;;;;;;3.17;2.50;;;21.70;32.80;;;;;;5090173;28;20048;-69
2021/12/14 04:34:54;;;;;;;2.20;1.95;;;21.70;32.80;;;;;;5065343;28;20087;-68
2021/12/14 04:37:22;;;;;;;2.67;2.20;;;21.70;32.80;;;;;;5087181;28;20094;-69
2021/12/14 04:40:13;;;;;;;3.53;1.85;;;21.70;32.80;;;;;;5092137;28;20048;-69
2021/12/14 04:54:00;;;;;;;2.15;1.95;;;21.70;32.80;;;;;;5071937;28;20460;-68
2021/12/14 04:56:38;;;;;;;2.83;2.20;;;21.70;32.80;;;;;;5060835;28;20045;-69
2021/12/14 04:59:14;;;;;;;2.85;2.20;;;21.70;32.70;;;;;;5070056;28;20080;-69
2021/12/14 05:01:43;;;;;;;2.47;2.10;;;21.70;32.70;;;;;;5068708;28;20259;-69
2021/12/14 05:04:15;;;;;;;2.70;2.33;;;21.70;32.70;;;;;;5081411;28;20426;-68
2021/12/14 05:06:50;;;;;;;3.97;2.70;;;21.70;32.70;;;;;;5104610;28;20208;-71
2021/12/14 05:09:31;;;;;;;3.20;2.55;;;21.70;32.70;;;;;;5110271;28;20047;-69
2021/12/14 05:12:11;;;;;;;2.75;2.35;;;21.60;32.60;;;;;;5109103;28;20101;-68
2021/12/14 05:14:42;;;;;;;2.33;2.13;;;21.70;32.70;;;;;;5094660;28;20357;-69
2021/12/14 05:17:14;;;;;;;3.47;2.53;;;21.60;32.60;;;;;;5073992;28;20095;-68
2021/12/14 05:19:45;;;;;;;2.60;2.40;;;21.70;32.70;;;;;;5089755;28;20134;-68
2021/12/14 05:22:13;;;;;;;;;;;21.60;33.20;;;;;;5087314;28;20101;-68
2021/12/14 05:24:45;;;;;;;3.42;2.85;;;21.70;32.70;;;;;;5084903;28;19963;-69
2021/12/14 05:27:19;;;;;;;2.88;2.30;;;21.60;32.60;;;;;;5097565;28;20051;-68
2021/12/14 05:29:46;;;;;;;3.60;2.45;;;21.60;32.60;;;;;;5093178;28;20043;-68
2021/12/14 05:32:17;;;;;;;3.00;2.22;;;21.60;32.60;;;;;;5088735;28;20244;-68
2021/12/14 05:34:49;;;;;;;3.53;2.00;;;21.60;32.60;;;;;;5088407;28;20100;-68
2021/12/14 05:37:25;;;;;;;2.97;2.58;;;21.60;32.70;;;;;;5084961;28;20094;-68
2021/12/14 05:39:59;;;;;;;2.92;2.50;;;21.60;32.60;;;;;;5086596;28;20062;-68
2021/12/14 05:45:21;;;;;;;2.80;2.22;;;21.60;32.60;;;;;;5071496;28;20141;-68
2021/12/14 05:47:53;;;;;;;3.22;2.70;;;21.60;32.60;;;;;;5074509;28;20052;-68
2021/12/14 05:50:26;;;;;;;3.85;2.83;;;21.60;32.70;;;;;;5085050;28;20055;-69
2021/12/14 05:52:56;;;;;;;2.72;2.20;;;21.60;32.60;;;;;;5106734;28;20047;-68
2021/12/14 05:55:28;;;;;;;4.10;2.80;;;21.60;32.60;;;;;;5086343;28;20539;-68
2021/12/14 05:57:57;;;;;;;2.78;2.20;;;21.60;32.60;;;;;;5109528;28;20062;-68
2021/12/14 06:00:28;;;;;;;3.38;2.60;;;21.60;32.60;;;;;;5091020;28;20047;-68
2021/12/14 06:02:56;;;;;;;2.83;2.50;;;21.60;32.60;;;;;;5069888;28;20066;-68
2021/12/14 06:05:28;;;;;;;3.13;2.80;;;21.60;32.60;;;;;;5076714;28;20048;-67
2021/12/14 06:07:57;;;;;;;5.07;3.15;;;21.60;32.50;;;;;;5071473;28;20117;-68
2021/12/14 06:10:25;;;;;;;4.55;3.35;;;21.60;32.30;;;;;;5086566;28;20086;-68
2021/12/14 06:12:52;;;;;;;3.28;2.67;;;21.50;32.10;;;;;;5071001;28;20052;-68
2021/12/14 06:15:26;;;;;;;5.80;3.67;;;21.50;32.10;;;;;;5074962;28;20048;-68
2021/12/14 06:17:54;;;;;;;5.57;3.55;;;21.50;31.90;;;;;;5069120;28;20094;-68
2021/12/14 06:20:25;;;;;;;4.40;3.45;;;21.60;31.80;;;;;;5071137;28;20063;-68
2021/12/14 06:22:54;;;;;;;3.58;3.25;;;21.60;31.70;;;;;;5100411;28;20081;-68
2021/12/14 06:25:27;;;;;;;4.30;3.50;;;21.60;31.70;;;;;;5080007;28;20080;-69
2021/12/14 06:27:59;;;;;;;5.63;3.53;;;21.60;31.70;;;;;;5084593;28;20178;-70
2021/12/14 06:30:31;;;;;;;4.40;3.70;;;21.60;31.70;;;;;;5087473;28;20123;-70
2021/12/14 06:33:05;;;;;;;5.63;4.47;;;21.60;31.70;;;;;;5070672;28;20044;-68
2021/12/14 06:35:41;;;;;;;4.65;3.92;;;21.70;31.70;;;;;;5071271;28;20973;-68
2021/12/14 06:38:30;;;;;;;5.45;4.45;;;21.70;31.90;;;;;;5067192;28;20086;-69
2021/12/14 06:41:17;;;;;;;5.03;4.32;;;21.70;31.90;;;;;;5074448;28;20119;-72
2021/12/14 06:44:04;;;;;;;5.38;4.43;;;21.70;31.90;;;;;;5049054;28;20052;-72
2021/12/14 06:46:36;;;;;;;5.35;4.75;;;21.80;32.10;;;;;;5072074;28;20143;-68
2021/12/14 06:49:12;;;;;;;5.20;4.07;;;21.80;32.80;;;;;;5089807;28;20043;-68
2021/12/14 06:51:43;;;;;;;6.40;4.72;;;21.90;32.20;;;;;;5088687;28;20661;-69
2021/12/14 06:54:18;;;;;;;7.38;4.75;;;21.90;32.10;;;;;;5083839;28;20048;-68
2021/12/14 06:56:51;;;;;;;6.38;5.30;;;21.90;31.90;;;;;;5062656;28;20041;-69
2021/12/14 06:59:33;;;;;;;7.53;5.50;;;21.90;31.90;;;;;;5067186;28;20044;-67
2021/12/14 07:02:05;;;;;;;7.57;5.68;;;22.00;31.80;;;;;;5068412;28;20127;-69
2021/12/14 07:04:35;;;;;;;7.28;5.63;;;22.00;31.70;;;;;;5065270;28;20049;-70
2021/12/14 07:07:09;;;;;;;7.13;5.70;;;22.00;31.60;;;;;;5058038;28;20106;-69
2021/12/14 07:09:43;;;;;;;6.53;5.50;;;22.00;31.60;;;;;;5069755;28;20115;-69
2021/12/14 07:12:18;;;;;;;7.63;6.13;;;22.10;31.60;;;;;;5051419;28;20476;-69
2021/12/14 07:15:20;;;;;;;6.47;5.47;;;22.10;31.50;;;;;;5062491;28;20051;-69
2021/12/14 07:17:59;;;;;;;9.90;6.45;;;22.10;31.50;;;;;;5079343;28;20785;-68
2021/12/14 07:20:42;;;;;;;9.38;6.47;;;22.10;31.50;;;;;;5079438;28;20098;-69
2021/12/14 07:23:22;;;;;;;8.73;6.32;;;22.20;31.40;;;;;;5075652;28;20073;-67
2021/12/14 07:25:53;;;;;;;7.75;6.80;;;22.20;31.40;;;;;;5064495;28;20870;-69
2021/12/14 07:28:24;;;;;;;7.82;6.50;;;22.20;31.40;;;;;;5074973;28;20063;-67
2021/12/14 07:30:57;;;;;;;9.05;7.20;;;22.20;31.30;;;;;;5064170;28;20549;-68
2021/12/14 07:33:28;;;;;;;9.65;7.28;;;22.20;31.30;;;;;;5084377;28;20043;-68
2021/12/14 07:36:15;;;;;;;;;;;22.30;31.30;;;;;;5069944;28;20075;-68
2021/12/14 07:38:56;;;;;;;10.70;8.05;;;22.30;31.30;;;;;;5048712;28;20065;-69
2021/12/14 07:41:35;;;;;;;12.13;8.88;;;22.30;31.20;;;;;;5033568;28;20523;-68
2021/12/14 07:44:11;;;;;;;9.23;7.75;;;22.40;31.30;;;;;;5080070;28;20533;-66
2021/12/14 07:46:48;;;;;;;10.90;8.00;;;22.40;31.30;;;;;;5066474;28;20416;-69
2021/12/14 07:49:27;;;;;;;10.63;8.45;;;22.40;31.20;;;;;;5083284;28;20071;-70
2021/12/14 07:52:16;;;;;;;11.82;8.77;;;22.40;31.40;;;;;;5083665;28;20068;-69
2021/12/14 07:54:55;;;;;;;11.40;8.52;;;22.50;31.50;;;;;;5073778;28;20766;-69
2021/12/14 07:57:27;;;;;;;12.82;8.38;;;22.50;31.60;;;;;;5074658;28;20079;-66
2021/12/14 07:59:58;;;;;;;13.73;8.10;;;22.50;31.50;;;;;;5079044;28;20135;-68
2021/12/14 08:02:30;;;;;;;10.23;8.50;;;22.60;31.70;;;;;;5083140;28;20477;-70
2021/12/14 08:05:22;;;;;;;9.00;7.75;;;22.60;31.60;;;;;;5070349;28;20390;-69
2021/12/14 08:08:03;;;;;;;12.25;9.23;;;22.70;31.70;;;;;;5088227;28;20055;-69
2021/12/14 08:10:37;;;;;;;10.40;8.70;;;22.70;31.50;;;;;;5074939;28;20040;-65
2021/12/14 08:13:21;;;;;;;12.13;9.60;;;22.80;31.40;;;;;;5093313;28;20101;-67
2021/12/14 08:15:57;;;;;;;13.32;10.13;;;22.80;31.30;;;;;;5069626;28;20091;-70
2021/12/14 08:18:31;;;;;;;14.73;11.00;;;22.80;31.30;;;;;;5067035;28;20416;-70
2021/12/14 08:21:04;;;;;;;12.93;11.25;;;22.90;31.20;;;;;;5075156;28;20080;-70
2021/12/14 08:23:41;;;;;;;14.35;12.00;;;22.90;31.10;;;;;;5087772;28;20094;-70
2021/12/14 08:26:15;;;;;;;13.43;10.63;;;22.90;31.20;;;;;;5071967;28;20137;-69
2021/12/14 08:28:52;;;;;;;13.43;10.85;;;23.00;31.20;;;;;;5088977;28;20090;-69
2021/12/14 08:31:23;;;;;;;14.05;11.73;;;23.00;31.00;;;;;;5080037;28;20050;-69
2021/12/14 08:34:00;;;;;;;;;;;23.00;30.90;;;;;;5054030;28;20049;-67
2021/12/14 08:36:42;;;;;;;15.27;11.98;;;23.10;31.00;;;;;;5050172;28;20360;-69
2021/12/14 08:39:17;;;;;;;14.13;11.75;;;23.10;31.10;;;;;;5090669;28;20075;-70
2021/12/14 08:41:51;;;;;;;17.02;11.63;;;23.20;31.20;;;;;;5083835;28;20480;-70
2021/12/14 08:44:37;;;;;;;16.23;12.05;;;23.20;31.20;;;;;;5090701;28;20044;-69
2021/12/14 08:47:08;;;;;;;14.60;10.13;;;23.20;31.30;;;;;;5086763;28;20092;-68
2021/12/14 08:49:37;;;;;;;13.05;10.70;;;23.30;31.40;;;;;;5110995;28;20039;-64
2021/12/14 08:52:06;;;;;;;11.93;10.50;;;23.40;31.40;;;;;;5082747;28;20048;-69
2021/12/14 08:54:34;;;;;;;12.20;9.82;;;23.40;31.30;;;;;;5089013;28;20256;-71
2021/12/14 08:57:18;;;;;;;10.35;8.88;;;23.40;31.30;;;;;;5086308;28;20166;-73
2021/12/14 08:59:49;;;;;;;12.57;9.40;;;23.50;31.40;;;;;;5091391;28;20051;-70
2021/12/14 09:02:17;;;;;;;14.25;8.50;;;23.50;31.40;;;;;;5088794;28;20077;-67
2021/12/14 09:04:52;;;;;;;12.07;9.05;;;23.50;31.40;;;;;;5084630;28;20389;-66
2021/12/14 09:07:24;;;;;;;9.30;8.00;;;23.60;31.30;;;;;;5047909;28;20120;-65
2021/12/14 09:09:53;;;;;;;10.82;8.77;;;23.60;31.30;;;;;;5091494;28;20040;-68
2021/12/14 09:12:26;;;;;;;10.32;8.35;;;23.60;31.40;;;;;;5087231;28;20489;-65
2021/12/14 09:15:01;;;;;;;9.75;7.88;;;23.70;31.40;;;;;;5068337;28;20700;-71
2021/12/14 09:17:28;;;;;;;10.95;8.07;;;23.70;31.30;;;;;;5070394;28;20113;-68
2021/12/14 09:20:08;;;;;;;9.23;7.78;;;23.80;31.40;;;;;;5084412;28;20112;-66
2021/12/14 09:22:41;;;;;;;8.77;7.65;;;23.80;31.50;;;;;;5075877;28;20123;-72
2021/12/14 09:25:15;;;;;;;12.75;7.80;;;23.90;31.50;;;;;;5064110;28;20390;-71
2021/12/14 09:27:42;;;;;;;8.02;7.15;;;23.90;31.50;;;;;;5093350;28;20107;-69
2021/12/14 09:30:13;;;;;;;8.38;7.15;;;23.90;31.40;;;;;;5111424;28;20440;-68
2021/12/14 09:32:40;;;;;;;;;;;23.90;31.40;;;;;;5095766;28;20071;-70
2021/12/14 09:35:16;;;;;;;8.88;6.70;;;24.00;31.40;;;;;;5061584;28;20026;-71
2021/12/14 09:37:47;;;;;;;7.93;6.85;;;24.00;31.40;;;;;;5081375;28;20048;-66
2021/12/14 09:40:21;;;;;;;7.97;6.65;;;24.10;31.40;;;;;;5091656;28;20138;-73
2021/12/14 09:42:48;;;;;;;7.95;6.20;;;24.10;31.40;;;;;;5075296;28;20098;-72
2021/12/14 09:45:22;;;;;;;8.38;6.38;;;24.10;31.40;;;;;;5062102;28;20119;-72
2021/12/14 09:47:50;;;;;;;8.80;6.78;;;24.20;32.00;;;;;;5081251;28;20072;-72
2021/12/14 09:50:23;;;;;;;7.72;6.43;;;24.20;31.30;;;;;;5090897;28;20044;-70
2021/12/14 09:52:51;;;;;;;7.15;5.90;;;24.20;31.30;;;;;;5088352;28;20078;-70
2021/12/14 09:55:24;;;;;;;6.25;5.47;;;24.30;31.40;;;;;;5066436;28;20106;-71
2021/12/14 09:57:55;;;;;;;6.60;5.43;;;24.30;31.30;;;;;;5082397;28;20052;-71
2021/12/14 10:00:31;;;;;;;6.35;5.40;;;24.30;31.20;;;;;;5091571;28;20519;-69
2021/12/14 10:03:02;;;;;;;6.50;5.38;;;24.40;31.30;;;;;;5071258;28;20071;-69
2021/12/14 10:05:46;;;;;;;5.30;4.80;;;24.40;31.10;;;;;;5057939;28;20044;-69
2021/12/14 10:08:36;;;;;;;6.13;5.28;;;24.40;31.00;;;;;;5077802;28;20079;-71
2021/12/14 10:11:23;;;;;;;5.82;4.90;;;24.50;30.90;;;;;;5088497;28;20044;-70
2021/12/14 10:13:53;;;;;;;6.32;5.53;;;24.50;30.80;;;;;;5070423;28;20045;-66
2021/12/14 10:16:21;;;;;;;6.30;5.30;;;24.50;30.70;;;;;;5056662;28;20055;-70
2021/12/14 10:18:57;;;;;;;5.50;4.97;;;24.50;30.70;;;;;;5069296;28;20048;-70
2021/12/14 10:21:34;;;;;;;5.75;4.50;;;24.50;30.60;;;;;;5069766;28;20748;-69
2021/12/14 10:24:03;;;;;;;5.45;4.60;;;24.50;30.50;;;;;;5069781;28;20079;-70
2021/12/14 10:26:33;;;;;;;5.82;3.88;;;24.50;30.50;;;;;;5077851;28;20093;-69
2021/12/14 10:29:02;;;;;;;5.10;4.40;;;24.50;30.40;;;;;;5089618;28;20089;-69
2021/12/14 10:31:40;;;;;;;3.90;3.60;;;24.50;30.40;;;;;;5090515;28;20040;-71
2021/12/14 10:34:17;;;;;;;5.13;4.63;;;24.50;30.40;;;;;;5086203;28;20052;-68
2021/12/14 10:37:04;;;;;;;4.20;3.80;;;24.50;30.30;;;;;;5082117;28;20086;-69
2021/12/14 10:39:40;;;;;;;4.60;3.55;;;24.50;30.30;;;;;;5088314;28;20048;-71
2021/12/14 10:45:03;;;;;;;4.13;3.70;;;24.50;30.30;;;;;;5084503;28;21611;-71
2021/12/14 10:47:31;;;;;;;4.60;4.20;;;24.60;30.20;;;;;;5079977;28;20089;-69
2021/12/14 10:50:04;;;;;;;3.92;3.55;;;24.60;30.20;;;;;;5089052;28;20097;-71
2021/12/14 10:56:51;;;;;;;4.30;3.33;;;24.60;30.10;;;;;;5079962;28;20146;-71
2021/12/14 10:59:22;;;;;;;4.07;3.63;;;24.70;30.10;;;;;;5088753;28;20464;-69
2021/12/14 11:01:50;;;;;;;4.93;4.10;;;24.70;30.10;;;;;;5090132;28;20072;-69
2021/12/14 11:04:40;;;;;;;3.47;3.17;;;24.70;30.00;;;;;;5088876;28;20056;-71
2021/12/14 11:07:19;;;;;;;4.00;3.40;;;24.70;30.00;;;;;;5080984;28;20059;-70
2021/12/14 11:09:49;;;;;;;5.03;3.58;;;24.70;30.00;;;;;;5081727;28;20447;-69
2021/12/14 11:16:15;;;;;;;;;;;24.70;30.00;;;;;;5064256;28;20066;-69
2021/12/14 11:18:45;;;;;;;2.95;2.75;;;24.80;29.90;;;;;;5058894;28;20381;-69
2021/12/14 11:21:14;;;;;;;;;;;24.80;29.90;;;;;;5058599;28;20048;-69
2021/12/14 11:23:45;;;;;;;3.38;3.08;;;24.80;29.90;;;;;;5059580;28;19927;-69
2021/12/14 11:26:22;;;;;;;4.35;2.55;;;24.90;30.00;;;;;;5057624;28;20447;-69
2021/12/14 11:28:58;;;;;;;4.32;2.92;;;24.80;29.90;;;;;;5079936;28;20413;-69
2021/12/14 11:31:34;;;;;;;4.90;3.20;;;24.80;29.90;;;;;;5078559;28;20040;-69
2021/12/14 11:34:11;;;;;;;4.03;2.53;;;24.90;29.90;;;;;;5078773;28;20520;-70
2021/12/14 11:36:56;;;;;;;3.88;3.00;;;24.90;29.90;;;;;;5074714;28;20036;-67
2021/12/14 11:39:28;;;;;;;2.53;2.30;;;24.90;29.90;;;;;;5079550;28;20040;-69
2021/12/14 11:42:04;;;;;;;2.92;2.72;;;24.90;29.90;;;;;;5078340;28;20447;-71
2021/12/14 11:44:44;;;;;;;3.38;2.83;;;24.90;29.90;;;;;;5077645;28;20488;-69
2021/12/14 11:47:42;;;;;;;;;;;24.90;29.90;;;;;;5076988;28;20913;-68
2021/12/14 11:50:28;;;;;;;2.97;2.67;;;24.90;29.80;;;;;;5062418;28;19924;-69
2021/12/14 11:53:15;;;;;;;3.05;2.50;;;24.90;29.80;;;;;;5069804;28;20049;-67
2021/12/14 11:55:49;;;;;;;2.20;2.00;;;25.00;29.90;;;;;;5048885;28;20056;-67
2021/12/14 11:58:33;;;;;;;2.15;1.95;;;24.90;29.80;;;;;;5061684;28;20080;-66
2021/12/14 12:01:19;;;;;;;2.85;2.55;;;25.00;29.90;;;;;;5062048;28;20078;-68
2021/12/14 12:04:05;;;;;;;4.00;2.53;;;25.00;29.80;;;;;;5063070;28;20403;-69
2021/12/14 12:10:05;;;;;;;2.25;2.08;;;25.00;29.90;;;;;;5059768;28;20135;-69
2021/12/14 12:12:38;;;;;;;2.20;2.00;;;24.90;30.00;;;;;;5074446;28;20135;-69
2021/12/14 12:15:12;;;;;;;2.58;2.05;;;24.90;30.00;;;;;;5062009;28;20094;-70
2021/12/14 12:17:52;;;;;;;2.78;2.20;;;24.90;30.10;;;;;;5073300;28;20052;-69
2021/12/14 12:20:41;;;;;;;2.28;2.08;;;25.00;30.30;;;;;;5065715;28;20048;-72
2021/12/14 12:23:16;;;;;;;2.40;2.20;;;25.00;30.30;;;;;;5080088;28;20059;-71
2021/12/14 12:25:51;;;;;;;3.60;2.40;;;25.00;30.30;;;;;;5072355;28;20044;-70
2021/12/14 12:28:26;;;;;;;2.05;1.67;;;25.00;30.30;;;;;;5084215;28;20519;-72
2021/12/14 12:31:11;;;;;;;2.45;2.22;;;25.00;30.30;;;;;;5078597;28;20572;-71
2021/12/14 12:33:45;;;;;;;2.67;2.05;;;25.10;30.40;;;;;;5091024;28;20079;-68
2021/12/14 12:36:19;;;;;;;3.00;2.00;;;25.10;30.50;;;;;;5058299;28;20044;-67
2021/12/14 12:39:00;;;;;;;1.73;1.63;;;25.10;30.50;;;;;;5087273;28;20105;-68
2021/12/14 12:41:47;;;;;;;1.95;1.73;;;25.10;30.60;;;;;;5082203;28;20522;-70
2021/12/14 12:44:27;;;;;;;2.40;2.28;;;25.10;30.70;;;;;;5085281;28;20056;-71
2021/12/14 12:47:08;;;;;;;2.05;1.92;;;25.10;30.70;;;;;;5071231;28;20404;-75
2021/12/14 12:49:46;;;;;;;2.13;1.95;;;25.10;30.90;;;;;;5086938;28;20063;-73
2021/12/14 12:52:27;;;;;;;2.45;2.00;;;25.10;31.00;;;;;;5085364;28;20233;-74
2021/12/14 12:55:11;;;;;;;2.47;2.10;;;25.10;31.00;;;;;;5082899;28;20094;-69
2021/12/14 12:58:12;;;;;;;1.77;1.58;;;25.10;30.90;;;;;;5080713;28;20440;-71
2021/12/14 13:00:52;;;;;;;1.92;1.73;;;25.10;30.80;;;;;;5078987;28;20071;-74
2021/12/14 13:03:40;;;;;;;2.88;1.90;;;25.10;30.70;;;;;;5091021;28;20400;-69
2021/12/14 13:06:16;;;;;;;2.25;2.00;;;25.10;30.70;;;;;;5068981;28;20063;-70
2021/12/14 13:08:46;;;;;;;2.42;1.92;;;25.20;30.70;;;;;;5073382;28;20063;-68
2021/12/14 13:11:20;;;;;;;4.38;2.28;;;25.20;30.60;;;;;;5081732;28;20061;-68
2021/12/14 13:13:53;;;;;;;2.65;1.63;;;25.20;30.60;;;;;;5072224;28;20436;-69
2021/12/14 13:16:28;;;;;;;2.60;2.00;;;25.20;30.50;;;;;;5060470;28;20060;-69
2021/12/14 13:19:23;;;;;;;3.20;1.83;;;25.30;30.50;;;;;;5090402;28;20048;-71
2021/12/14 13:21:57;;;;;;;1.90;1.70;;;25.30;30.70;;;;;;5079377;28;20089;-71
2021/12/14 13:24:29;;;;;;;2.10;1.90;;;25.30;30.80;;;;;;5083374;28;20058;-70
2021/12/14 13:27:11;;;;;;;2.20;2.00;;;25.30;30.80;;;;;;5068242;28;20040;-72
2021/12/14 13:29:48;;;;;;;3.75;2.72;;;25.30;30.80;;;;;;5088506;28;20450;-69
2021/12/14 13:32:22;;;;;;;2.47;2.03;;;25.30;30.70;;;;;;5079558;28;20109;-71
2021/12/14 13:35:02;;;;;;;5.47;2.17;;;25.30;30.70;;;;;;5065568;28;20052;-71
2021/12/14 13:37:37;;;;;;;2.72;1.90;;;25.30;30.60;;;;;;5079941;28;20051;-70
2021/12/14 13:40:13;;;;;;;2.55;2.00;;;25.20;30.50;;;;;;5089618;28;20040;-70
2021/12/14 13:42:53;;;;;;;2.97;2.28;;;25.30;30.50;;;;;;5088703;28;20040;-72
2021/12/14 13:45:26;;;;;;;2.88;2.10;;;25.20;30.40;;;;;;5072702;28;20079;-68
2021/12/14 13:47:54;;;;;;;2.13;1.92;;;25.20;30.40;;;;;;5068925;28;20210;-68
2021/12/14 13:50:35;;;;;;;3.50;2.58;;;25.20;30.80;;;;;;5076269;28;20087;-68
2021/12/14 13:53:02;;;;;;;2.40;1.90;;;25.20;31.60;;;;;;5072510;28;20497;-71
2021/12/14 13:55:43;;;;;;;3.03;2.22;;;25.20;31.20;;;;;;5062183;28;20670;-69
2021/12/14 13:58:18;;;;;;;2.30;2.10;;;25.20;31.40;;;;;;5081209;28;20055;-69
2021/12/14 14:01:01;;;;;;;5.05;2.67;;;25.20;31.70;;;;;;5089040;28;20130;-69